Time;durP1;ratioP1;P1;durP2;ratioP2;P2;SDS_P1;SDS_P2;PMS_P1;PMS_P2;Temp;Humidity;BMP_temperature;BMP_pressure;BME280_temperature;BME280_humidity;BME280_pressure;Samples;Min_cycle;Max_cycle;Signal;HPM_P1;HPM_P2
2021/04/13 00:02:27;;;;;;;8.45;7.45;;;1.00;99.80;;;;;;4886465;29;20308;-83
2021/04/13 00:04:58;;;;;;;9.80;7.88;;;0.90;99.80;;;;;;4973134;28;20308;-84
2021/04/13 00:07:28;;;;;;;13.00;8.40;;;1.00;99.80;;;;;;4993005;28;20309;-84
2021/04/13 00:09:57;;;;;;;13.82;8.32;;;1.00;99.80;;;;;;4998928;28;20318;-83
2021/04/13 00:12:29;;;;;;;10.93;8.45;;;1.00;99.80;;;;;;5002318;28;20267;-83
2021/04/13 00:15:00;;;;;;;11.05;8.25;;;1.10;99.80;;;;;;5001419;28;20749;-83
2021/04/13 00:17:30;;;;;;;11.48;8.20;;;1.10;99.80;;;;;;4989304;28;20281;-83
2021/04/13 00:20:05;;;;;;;11.45;7.93;;;1.10;99.80;;;;;;5005757;28;20224;-83
2021/04/13 00:22:33;;;;;;;10.80;7.75;;;1.20;99.80;;;;;;5008952;28;20317;-83
2021/04/13 00:25:01;;;;;;;15.13;9.20;;;1.20;99.80;;;;;;5006910;28;20244;-84
2021/04/13 00:27:31;;;;;;;12.57;8.90;;;1.20;99.80;;;;;;5003099;28;20704;-85
2021/04/13 00:30:11;;;;;;;12.70;8.45;;;1.20;99.80;;;;;;4997713;28;20922;-85
2021/04/13 00:32:47;;;;;;;11.30;8.02;;;1.20;99.80;;;;;;5003543;28;20219;-84
2021/04/13 00:35:19;;;;;;;13.55;8.55;;;1.10;99.80;;;;;;5004743;28;20242;-83
2021/04/13 00:37:46;;;;;;;13.52;7.88;;;1.10;99.80;;;;;;4997300;28;20313;-84
2021/04/13 00:40:24;;;;;;;13.48;9.13;;;1.10;99.80;;;;;;5001446;28;20229;-83
2021/04/13 00:42:53;;;;;;;11.45;8.27;;;1.00;99.80;;;;;;4983350;28;20224;-83
2021/04/13 00:45:34;;;;;;;11.90;8.02;;;1.00;99.80;;;;;;5003949;28;20239;-82
2021/04/13 00:48:03;;;;;;;11.40;8.10;;;1.00;99.80;;;;;;5000832;28;20293;-84
2021/04/13 00:50:34;;;;;;;13.00;8.65;;;0.90;99.80;;;;;;5007411;28;20229;-83
2021/04/13 00:53:04;;;;;;;11.93;8.10;;;1.00;99.80;;;;;;5008450;28;20729;-83
2021/04/13 00:55:36;;;;;;;11.27;8.35;;;1.00;99.80;;;;;;5008250;28;20231;-83
2021/04/13 00:58:07;;;;;;;13.35;9.15;;;0.90;99.80;;;;;;4998660;28;20229;-82
2021/04/13 01:00:38;;;;;;;11.15;8.70;;;0.90;99.80;;;;;;4979276;28;20248;-82
2021/04/13 01:03:06;;;;;;;11.45;9.18;;;0.90;99.80;;;;;;5006738;28;20736;-82
2021/04/13 01:05:39;;;;;;;13.18;8.90;;;0.80;99.80;;;;;;5007596;28;20243;-82
2021/04/13 01:08:23;;;;;;;12.55;8.73;;;0.80;99.80;;;;;;4973730;28;20233;-82
2021/04/13 01:10:54;;;;;;;12.57;8.85;;;0.80;99.80;;;;;;4974497;28;20884;-82
2021/04/13 01:13:29;;;;;;;15.40;9.15;;;0.80;99.80;;;;;;5006361;28;20230;-82
2021/04/13 01:15:57;;;;;;;12.50;8.85;;;0.70;99.80;;;;;;5005472;28;20232;-82
2021/04/13 01:18:31;;;;;;;13.15;9.20;;;0.70;99.80;;;;;;4996399;28;20254;-82
2021/04/13 01:21:07;;;;;;;13.93;8.77;;;0.70;99.80;;;;;;5006836;28;20239;-82
2021/04/13 01:23:40;;;;;;;16.65;9.48;;;0.50;99.80;;;;;;5008413;28;20242;-84
2021/04/13 01:26:08;;;;;;;15.52;9.35;;;0.50;99.80;;;;;;5007652;28;20295;-83
2021/04/13 01:28:37;;;;;;;13.02;9.60;;;0.40;99.80;;;;;;5002439;28;20239;-83
2021/04/13 01:31:09;;;;;;;14.98;8.60;;;0.30;99.80;;;;;;4999968;28;20229;-82
2021/04/13 01:33:43;;;;;;;13.68;10.05;;;0.30;99.80;;;;;;5000845;28;20713;-83
2021/04/13 01:36:22;;;;;;;12.43;8.60;;;0.20;99.80;;;;;;5006548;28;20276;-82
2021/04/13 01:39:00;;;;;;;13.32;9.05;;;0.20;99.80;;;;;;4994658;28;20235;-83
2021/04/13 01:41:47;;;;;;;13.52;9.40;;;0.20;99.80;;;;;;4996229;28;20322;-82
2021/04/13 01:44:17;;;;;;;13.77;10.35;;;0.20;99.80;;;;;;4987977;28;20236;-82
2021/04/13 01:46:45;;;;;;;15.98;10.10;;;0.20;99.80;;;;;;4987131;28;20245;-83
2021/04/13 01:49:13;;;;;;;14.68;9.88;;;0.20;99.80;;;;;;4993595;28;20226;-82
2021/04/13 01:51:41;;;;;;;14.77;10.07;;;0.20;99.80;;;;;;5001027;28;20267;-83
2021/04/13 01:54:14;;;;;;;12.30;9.82;;;0.20;99.80;;;;;;5000078;28;20310;-82
2021/04/13 01:56:58;;;;;;;12.00;8.85;;;0.10;99.80;;;;;;4994109;28;20228;-82
2021/04/13 01:59:34;;;;;;;15.55;9.70;;;0.10;99.80;;;;;;4977187;28;20231;-83
2021/04/13 02:02:07;;;;;;;11.57;9.43;;;0.10;99.80;;;;;;4991085;28;20660;-82
2021/04/13 02:04:45;;;;;;;13.75;9.85;;;0.10;99.80;;;;;;5008564;28;20225;-82
2021/04/13 02:07:23;;;;;;;18.10;9.90;;;0.10;99.80;;;;;;5012232;28;20307;-83
2021/04/13 02:09:55;;;;;;;14.13;10.23;;;0.10;99.80;;;;;;5011470;28;20195;-83
2021/04/13 02:12:24;;;;;;;20.08;11.85;;;0.10;99.80;;;;;;5011891;28;20440;-82
2021/04/13 02:14:56;;;;;;;15.13;9.80;;;0.00;99.80;;;;;;4982782;28;20254;-83
2021/04/13 02:17:27;;;;;;;15.82;10.70;;;0.00;99.80;;;;;;4990210;28;20693;-82
2021/04/13 02:19:56;;;;;;;13.32;9.70;;;0.00;99.80;;;;;;4980809;28;20232;-83
2021/04/13 02:22:24;;;;;;;14.20;9.55;;;0.00;99.80;;;;;;4986409;28;20715;-82
2021/04/13 02:24:54;;;;;;;15.27;9.88;;;0.00;99.80;;;;;;5006561;28;20241;-83
2021/04/13 02:27:24;;;;;;;16.52;10.23;;;0.00;99.80;;;;;;5007251;28;20903;-82
2021/04/13 02:29:54;;;;;;;14.23;10.02;;;0.00;99.80;;;;;;4992930;28;20721;-82
2021/04/13 02:32:24;;;;;;;21.73;12.00;;;0.00;99.80;;;;;;5005428;28;20231;-83
2021/04/13 02:34:56;;;;;;;14.60;10.75;;;0.10;99.80;;;;;;5008252;28;20246;-83
2021/04/13 02:37:34;;;;;;;17.75;11.20;;;0.10;99.80;;;;;;5001692;28;20262;-84
2021/04/13 02:40:06;;;;;;;18.00;11.70;;;0.10;99.80;;;;;;5002832;28;20706;-83
2021/04/13 02:42:38;;;;;;;19.55;11.95;;;0.20;99.80;;;;;;4993152;28;20239;-83
2021/04/13 02:45:09;;;;;;;23.02;13.98;;;0.30;99.80;;;;;;4993836;28;20705;-82
2021/04/13 02:47:43;;;;;;;19.90;11.20;;;0.30;99.80;;;;;;4991401;28;20783;-83
2021/04/13 02:50:16;;;;;;;21.65;12.45;;;0.20;99.80;;;;;;5013715;28;20704;-82
2021/04/13 02:52:53;;;;;;;18.85;12.68;;;0.10;99.80;;;;;;5001150;28;20247;-83
2021/04/13 02:55:24;;;;;;;21.52;12.68;;;0.10;99.80;;;;;;4971634;28;20238;-82
2021/04/13 02:57:53;;;;;;;21.88;12.82;;;0.00;99.80;;;;;;4985513;28;20234;-83
2021/04/13 03:00:24;;;;;;;23.58;12.23;;;0.00;99.80;;;;;;4992855;28;20239;-82
2021/04/13 03:02:55;;;;;;;24.70;12.07;;;-0.10;99.80;;;;;;5000012;28;20308;-83
2021/04/13 03:05:26;;;;;;;23.75;13.90;;;-0.10;99.80;;;;;;4986221;28;20244;-82
2021/04/13 03:07:55;;;;;;;21.45;12.20;;;-0.20;99.80;;;;;;5001312;28;20231;-82
2021/04/13 03:10:28;;;;;;;18.25;12.15;;;-0.20;99.80;;;;;;5006840;28;20243;-82
2021/04/13 03:12:57;;;;;;;23.20;13.48;;;-0.30;99.80;;;;;;4987755;28;20318;-83
2021/04/13 03:15:27;;;;;;;16.77;11.43;;;-0.30;99.80;;;;;;5001839;28;20804;-82
2021/04/13 03:17:58;;;;;;;24.88;12.23;;;-0.30;99.80;;;;;;4994448;28;20231;-84
2021/04/13 03:20:30;;;;;;;21.65;13.15;;;-0.30;99.80;;;;;;5001280;28;20318;-84
2021/04/13 03:23:01;;;;;;;19.65;12.88;;;-0.30;99.80;;;;;;5005755;28;20238;-84
2021/04/13 03:25:36;;;;;;;19.73;12.18;;;-0.30;99.80;;;;;;5001296;28;20236;-83
2021/04/13 03:28:07;;;;;;;19.58;12.70;;;-0.40;99.80;;;;;;5016768;28;20235;-83
2021/04/13 03:30:38;;;;;;;21.27;13.45;;;-0.40;99.80;;;;;;4991881;28;20232;-83
2021/04/13 03:33:08;;;;;;;17.05;11.82;;;-0.40;99.80;;;;;;5009904;28;20310;-82
2021/04/13 03:35:36;;;;;;;17.45;12.48;;;-0.40;99.80;;;;;;5009703;28;20238;-84
2021/04/13 03:38:06;;;;;;;21.02;11.70;;;-0.40;99.80;;;;;;5005707;28;20302;-82
2021/04/13 03:40:36;;;;;;;18.90;12.20;;;-0.40;99.80;;;;;;5006774;28;20249;-82
2021/04/13 03:43:06;;;;;;;19.23;12.30;;;-0.40;99.80;;;;;;4999764;28;20235;-82
2021/04/13 03:45:35;;;;;;;19.90;11.82;;;-0.40;99.80;;;;;;4994692;28;20218;-82
2021/04/13 03:48:06;;;;;;;19.98;11.38;;;-0.40;99.80;;;;;;5004259;28;20309;-82
2021/04/13 03:50:39;;;;;;;25.77;17.23;;;-0.50;99.80;;;;;;5005992;28;20251;-83
2021/04/13 03:53:08;;;;;;;19.77;13.50;;;-0.50;99.80;;;;;;4993114;28;20697;-84
2021/04/13 03:55:36;;;;;;;21.92;12.82;;;-0.60;99.80;;;;;;4994940;28;20316;-83
2021/04/13 03:58:18;;;;;;;25.10;13.95;;;-0.60;99.80;;;;;;5008720;28;20222;-83
2021/04/13 04:00:45;;;;;;;20.15;14.02;;;-0.60;99.80;;;;;;4998513;28;20241;-82
2021/04/13 04:03:13;;;;;;;25.42;16.10;;;-0.60;99.80;;;;;;5004130;28;20236;-83
2021/04/13 04:05:46;;;;;;;22.90;14.00;;;-0.60;99.80;;;;;;5009155;28;20250;-82
2021/04/13 04:08:21;;;;;;;20.90;12.07;;;-0.60;99.80;;;;;;5006119;28;20842;-82
2021/04/13 04:10:51;;;;;;;24.00;11.52;;;-0.60;99.80;;;;;;5007321;28;20329;-83
2021/04/13 04:13:31;;;;;;;20.33;12.68;;;-0.60;99.80;;;;;;5001079;28;20732;-83
2021/04/13 04:16:11;;;;;;;19.00;11.48;;;-0.60;99.80;;;;;;4997618;28;20233;-83
2021/04/13 04:18:42;;;;;;;20.88;11.98;;;-0.50;99.80;;;;;;5003343;28;20322;-83
2021/04/13 04:21:16;;;;;;;20.48;12.93;;;-0.40;99.80;;;;;;5007732;28;20239;-83
2021/04/13 04:23:44;;;;;;;21.00;12.75;;;-0.30;99.80;;;;;;4993456;28;20741;-83
2021/04/13 04:26:19;;;;;;;20.45;13.45;;;-0.20;99.80;;;;;;5000458;28;20229;-83
2021/04/13 04:28:46;;;;;;;21.67;12.90;;;-0.20;99.80;;;;;;5006864;28;20563;-84
2021/04/13 04:31:34;;;;;;;18.27;12.60;;;-0.10;99.80;;;;;;5012023;28;20246;-83
2021/04/13 04:34:41;;;;;;;20.58;12.05;;;-0.10;99.80;;;;;;4997523;28;20641;-84
2021/04/13 04:37:23;;;;;;;16.25;11.57;;;-0.10;99.80;;;;;;4983276;28;20237;-84
2021/04/13 04:40:19;;;;;;;20.13;12.50;;;0.00;99.80;;;;;;4982632;28;20247;-84
2021/04/13 04:42:52;;;;;;;17.38;11.85;;;0.00;99.80;;;;;;4977950;28;20702;-83
2021/04/13 04:45:32;;;;;;;21.10;13.43;;;0.10;99.80;;;;;;4978714;28;20242;-83
2021/04/13 04:47:59;;;;;;;21.20;13.05;;;0.10;99.80;;;;;;4982233;28;20603;-84
2021/04/13 04:50:26;;;;;;;22.58;13.80;;;0.20;99.80;;;;;;4990557;28;20224;-84
2021/04/13 04:52:54;;;;;;;20.95;14.23;;;0.30;99.80;;;;;;5009297;28;20230;-84
2021/04/13 04:55:21;;;;;;;22.50;14.15;;;0.30;99.80;;;;;;5002685;28;20327;-85
2021/04/13 04:57:52;;;;;;;24.58;13.52;;;0.40;99.80;;;;;;5000106;28;20236;-84
2021/04/13 05:00:20;;;;;;;22.23;13.65;;;0.50;99.80;;;;;;4997659;28;20664;-84
2021/04/13 05:02:47;;;;;;;20.23;11.65;;;0.50;99.80;;;;;;5009170;28;20226;-84
2021/04/13 05:05:15;;;;;;;21.75;12.82;;;0.60;99.80;;;;;;4997874;28;20241;-83
2021/04/13 05:07:42;;;;;;;22.85;12.73;;;0.60;99.80;;;;;;5001379;28;20237;-84
2021/04/13 05:10:11;;;;;;;21.55;13.52;;;0.70;99.80;;;;;;5004395;28;20231;-83
2021/04/13 05:12:38;;;;;;;22.05;12.98;;;0.70;99.80;;;;;;4996572;28;20234;-83
2021/04/13 05:15:06;;;;;;;21.50;12.00;;;0.70;99.80;;;;;;5006735;28;20274;-83
2021/04/13 05:17:33;;;;;;;20.30;12.38;;;0.80;99.80;;;;;;5006335;28;20329;-83
2021/04/13 05:20:00;;;;;;;23.48;12.73;;;0.80;99.80;;;;;;5005835;28;20655;-83
2021/04/13 05:22:27;;;;;;;22.33;12.30;;;0.80;99.80;;;;;;5007915;28;20229;-84
2021/04/13 05:24:54;;;;;;;23.60;14.10;;;0.80;99.80;;;;;;5005271;28;20238;-83
2021/04/13 05:27:22;;;;;;;22.65;13.70;;;0.80;99.80;;;;;;4990015;28;20226;-83
2021/04/13 05:29:49;;;;;;;23.98;13.38;;;0.80;99.80;;;;;;5001015;28;20234;-83
2021/04/13 05:32:16;;;;;;;24.15;14.93;;;0.80;99.80;;;;;;5001700;28;20733;-83
2021/04/13 05:34:43;;;;;;;20.63;13.25;;;0.80;99.80;;;;;;5014126;28;20265;-84
2021/04/13 05:37:11;;;;;;;19.33;12.27;;;0.80;99.80;;;;;;4989961;28;20366;-84
2021/04/13 05:39:38;;;;;;;20.17;14.40;;;0.80;99.80;;;;;;4985714;28;20237;-84
2021/04/13 05:42:06;;;;;;;23.77;15.23;;;0.80;99.80;;;;;;4988103;28;20617;-84
2021/04/13 05:44:34;;;;;;;21.83;13.45;;;0.90;99.80;;;;;;4994393;28;20756;-84
2021/04/13 05:47:01;;;;;;;21.70;13.93;;;0.90;99.80;;;;;;4997565;28;20310;-84
2021/04/13 05:49:28;;;;;;;20.75;13.63;;;1.00;99.80;;;;;;5005893;28;20698;-84
2021/04/13 05:51:55;;;;;;;19.50;13.23;;;1.00;99.80;;;;;;5006555;28;20591;-85
2021/04/13 05:54:22;;;;;;;25.35;14.05;;;1.10;99.80;;;;;;5009177;28;20724;-84
2021/04/13 05:56:49;;;;;;;24.45;14.82;;;1.10;99.80;;;;;;4998808;28;20229;-84
2021/04/13 05:59:17;;;;;;;26.40;15.07;;;1.10;99.80;;;;;;4993711;28;20833;-84
2021/04/13 06:01:48;;;;;;;38.80;19.05;;;1.10;99.80;;;;;;4984460;28;20230;-84
2021/04/13 06:04:16;;;;;;;32.40;18.15;;;1.10;99.80;;;;;;5007086;28;20264;-84
2021/04/13 06:06:43;;;;;;;27.55;17.05;;;1.20;99.80;;;;;;5006187;28;20321;-84
2021/04/13 06:09:12;;;;;;;30.83;16.30;;;1.20;99.80;;;;;;4982413;28;20315;-84
2021/04/13 06:11:40;;;;;;;32.55;16.60;;;1.30;99.80;;;;;;4996894;28;20258;-83
2021/04/13 06:14:08;;;;;;;24.77;16.00;;;1.40;99.80;;;;;;4991689;28;20226;-85
2021/04/13 06:16:37;;;;;;;28.42;16.30;;;1.50;99.80;;;;;;5001041;28;20323;-87
2021/04/13 06:19:07;;;;;;;24.38;14.63;;;1.60;99.80;;;;;;5023470;28;20743;-87
2021/04/13 06:21:38;;;;;;;30.88;16.90;;;1.80;99.80;;;;;;5000271;28;20795;-86
2021/04/13 06:24:06;;;;;;;26.50;15.77;;;1.90;99.80;;;;;;5008818;28;20236;-87
2021/04/13 06:26:36;;;;;;;25.45;15.38;;;2.00;99.80;;;;;;5007550;28;20226;-85
2021/04/13 06:29:04;;;;;;;29.65;15.52;;;2.10;99.80;;;;;;5008778;28;20277;-86
2021/04/13 06:31:31;;;;;;;27.85;15.55;;;2.20;99.80;;;;;;5012979;28;20234;-86
2021/04/13 06:33:58;;;;;;;21.48;13.20;;;2.30;99.80;;;;;;5008453;28;20227;-86
2021/04/13 06:36:29;;;;;;;24.15;14.43;;;2.30;99.80;;;;;;5010863;28;20228;-86
2021/04/13 06:38:59;;;;;;;25.02;14.55;;;2.40;99.80;;;;;;5008575;28;20316;-85
2021/04/13 06:42:02;;;;;;;27.38;15.40;;;2.40;99.80;;;;;;5008967;28;20628;-86
2021/04/13 06:45:05;;;;;;;26.35;14.68;;;2.50;99.80;;;;;;4996165;28;20297;-85
2021/04/13 06:48:05;;;;;;;27.67;14.65;;;2.60;99.80;;;;;;4995491;28;20311;-86
2021/04/13 06:50:38;;;;;;;27.35;15.18;;;2.70;99.80;;;;;;5000061;28;20256;-85
2021/04/13 06:53:20;;;;;;;24.30;15.43;;;2.70;99.80;;;;;;5001751;28;20907;-85
2021/04/13 06:56:16;;;;;;;21.30;13.10;;;2.80;99.80;;;;;;4994256;28;20261;-86
2021/04/13 06:59:05;;;;;;;22.23;15.00;;;2.90;99.80;;;;;;5013151;28;20228;-85
2021/04/13 07:01:38;;;;;;;26.98;14.07;;;2.90;99.80;;;;;;5015219;28;20234;-84
2021/04/13 07:04:09;;;;;;;29.13;15.57;;;3.00;99.80;;;;;;5013758;28;20233;-85
2021/04/13 07:06:40;;;;;;;30.92;14.60;;;3.00;99.80;;;;;;5013280;28;20264;-86
2021/04/13 07:09:18;;;;;;;27.17;14.32;;;3.10;99.80;;;;;;5013520;28;20235;-86
2021/04/13 07:11:50;;;;;;;32.25;15.73;;;3.20;99.80;;;;;;5013048;28;20235;-87
2021/04/13 07:14:21;;;;;;;23.23;13.95;;;3.30;99.80;;;;;;5013853;28;20260;-85
2021/04/13 07:16:54;;;;;;;25.42;16.33;;;3.40;99.80;;;;;;4993965;28;20232;-85
2021/04/13 07:19:23;;;;;;;27.63;15.73;;;;;;;;;;5013388;28;20233;-85
2021/04/13 07:21:59;;;;;;;28.52;16.15;;;;;;;;;;5013964;28;20239;-85
2021/04/13 07:24:37;;;;;;;29.73;15.40;;;3.60;99.80;;;;;;5013120;28;20314;-85
2021/04/13 07:27:07;;;;;;;31.27;15.50;;;3.70;99.80;;;;;;5013047;28;20228;-85
2021/04/13 07:29:39;;;;;;;24.38;14.02;;;3.80;99.80;;;;;;5012540;28;20315;-85
2021/04/13 07:32:09;;;;;;;27.67;15.77;;;3.90;99.80;;;;;;5012810;28;20225;-84
2021/04/13 07:34:39;;;;;;;26.58;14.40;;;4.00;99.80;;;;;;5013027;28;20229;-85
2021/04/13 07:37:13;;;;;;;28.48;15.77;;;4.10;99.80;;;;;;5012792;28;20892;-86
2021/04/13 07:39:43;;;;;;;20.70;12.80;;;4.20;99.80;;;;;;5011604;28;20229;-87
2021/04/13 07:42:17;;;;;;;25.52;13.00;;;4.30;99.80;;;;;;5012538;28;20234;-86
2021/04/13 07:44:57;;;;;;;24.77;14.60;;;4.40;99.80;;;;;;5011694;28;20236;-87
2021/04/13 07:47:49;;;;;;;22.80;14.40;;;4.50;99.80;;;;;;5012400;28;20225;-85
2021/04/13 07:50:25;;;;;;;23.88;13.30;;;4.60;99.80;;;;;;4992953;28;20276;-86
2021/04/13 07:52:58;;;;;;;25.60;12.93;;;4.80;99.80;;;;;;5000482;28;20226;-86
2021/04/13 07:55:36;;;;;;;26.20;13.88;;;4.90;99.80;;;;;;4993280;28;20764;-86
2021/04/13 07:58:09;;;;;;;22.40;12.60;;;5.10;99.80;;;;;;4993130;28;20245;-85
2021/04/13 08:00:39;;;;;;;17.08;11.68;;;5.10;99.80;;;;;;4992014;28;20239;-85
2021/04/13 08:03:15;;;;;;;19.13;12.82;;;5.20;99.80;;;;;;4991608;28;20230;-86
2021/04/13 08:05:45;;;;;;;19.65;10.82;;;5.30;99.80;;;;;;4989567;28;20233;-87
2021/04/13 08:08:23;;;;;;;23.02;12.18;;;5.40;99.80;;;;;;4989867;28;20715;-86
2021/04/13 08:10:52;;;;;;;20.00;10.55;;;5.60;99.80;;;;;;4991377;28;20310;-86
2021/04/13 08:13:30;;;;;;;22.55;11.50;;;5.60;99.60;;;;;;5012001;28;20332;-86
2021/04/13 08:15:58;;;;;;;20.25;12.00;;;5.60;99.80;;;;;;5011618;28;20225;-85
2021/04/13 08:18:33;;;;;;;19.20;11.93;;;5.60;99.80;;;;;;5011594;28;20312;-85
2021/04/13 08:21:17;;;;;;;16.85;11.55;;;5.70;99.80;;;;;;5011604;28;20687;-85
2021/04/13 08:23:45;;;;;;;20.08;13.35;;;5.80;99.80;;;;;;5011584;28;20240;-85
2021/04/13 08:26:28;;;;;;;23.85;12.52;;;5.90;99.80;;;;;;5011595;28;20705;-85
2021/04/13 08:28:59;;;;;;;23.17;12.43;;;6.00;99.30;;;;;;5012110;28;20244;-88
2021/04/13 08:34:26;;;;;;;19.27;12.45;;;6.10;98.50;;;;;;5010276;28;20312;-87
2021/04/13 08:37:06;;;;;;;24.20;11.77;;;6.30;99.20;;;;;;5011335;28;20233;-87
2021/04/13 08:39:39;;;;;;;18.13;10.30;;;6.30;97.70;;;;;;5012707;28;20313;-86
2021/04/13 08:42:24;;;;;;;16.42;10.40;;;6.50;96.70;;;;;;5012192;28;20225;-87
2021/04/13 08:44:58;;;;;;;17.63;10.57;;;6.70;97.10;;;;;;5011028;28;20226;-86
2021/04/13 08:47:36;;;;;;;18.90;10.83;;;7.10;96.00;;;;;;5011199;28;20465;-87
2021/04/13 08:50:34;;;;;;;19.60;9.77;;;7.20;94.90;;;;;;5009697;28;21166;-86
2021/04/13 08:53:03;;;;;;;11.23;7.20;;;7.40;94.20;;;;;;5011272;28;20461;-86
2021/04/13 08:55:45;;;;;;;10.40;6.70;;;7.40;90.90;;;;;;5010917;28;20473;-86
2021/04/13 08:58:37;;;;;;;16.00;7.00;;;7.30;90.90;;;;;;5011370;28;21016;-87
2021/04/13 09:01:24;;;;;;;7.38;5.20;;;7.30;89.30;;;;;;5009618;28;21095;-86
2021/04/13 09:03:52;;;;;;;7.47;5.30;;;7.20;90.30;;;;;;5008608;28;20577;-86
2021/04/13 09:06:27;;;;;;;9.43;6.33;;;7.20;90.30;;;;;;5010165;28;20556;-86
2021/04/13 09:09:04;;;;;;;9.60;6.10;;;7.30;89.70;;;;;;5011080;28;20975;-86
2021/04/13 09:11:46;;;;;;;7.00;5.13;;;7.50;90.20;;;;;;5001685;28;21149;-86
2021/04/13 09:14:26;;;;;;;8.93;4.43;;;8.00;90.50;;;;;;5010680;28;21094;-86
2021/04/13 09:16:58;;;;;;;11.63;5.17;;;8.40;87.40;;;;;;5011383;28;20475;-87
2021/04/13 09:20:12;;;;;;;8.30;5.53;;;8.80;84.90;;;;;;5012513;28;20478;-86
2021/04/13 09:22:49;;;;;;;5.00;3.63;;;8.90;83.80;;;;;;4980927;28;20512;-86
2021/04/13 09:25:31;;;;;;;6.20;4.23;;;8.90;84.20;;;;;;4997232;28;20546;-86
2021/04/13 09:28:04;;;;;;;12.17;4.67;;;8.80;84.20;;;;;;5001643;28;20467;-86
2021/04/13 09:30:35;;;;;;;9.27;4.63;;;8.60;84.00;;;;;;4996186;28;20501;-86
2021/04/13 09:33:12;;;;;;;6.77;4.13;;;8.40;84.50;;;;;;5001011;28;20474;-86
2021/04/13 09:35:58;;;;;;;7.80;4.37;;;8.20;85.80;;;;;;4996049;28;20476;-86
2021/04/13 09:38:42;;;;;;;6.93;3.30;;;8.30;85.90;;;;;;5001260;28;21034;-86
2021/04/13 09:41:19;;;;;;;4.43;3.50;;;8.10;85.90;;;;;;5010759;28;20472;-86
2021/04/13 09:44:12;;;;;;;5.13;3.30;;;8.00;85.40;;;;;;4989813;28;20493;-85
2021/04/13 09:46:51;;;;;;;6.00;3.73;;;8.30;85.70;;;;;;5005892;28;20472;-86
2021/04/13 09:49:33;;;;;;;6.00;3.20;;;8.70;84.90;;;;;;5014597;28;20465;-86
2021/04/13 09:52:41;;;;;;;6.53;3.37;;;8.70;83.80;;;;;;5009164;28;20486;-86
2021/04/13 09:55:26;;;;;;;5.43;3.80;;;8.50;83.70;;;;;;4994111;28;20469;-86
2021/04/13 09:58:35;;;;;;;5.43;3.87;;;8.20;83.80;;;;;;5001996;28;20899;-86
2021/04/13 10:01:18;;;;;;;7.83;4.20;;;8.20;86.10;;;;;;5003058;28;20483;-86
2021/04/13 10:04:27;;;;;;;9.00;3.63;;;8.80;85.40;;;;;;5002117;28;20479;-86
2021/04/13 10:07:16;;;;;;;4.77;4.17;;;9.30;82.60;;;;;;4975211;28;20898;-86
2021/04/13 10:09:45;;;;;;;3.60;3.27;;;9.20;82.00;;;;;;5007632;28;21030;-86
2021/04/13 10:12:38;;;;;;;4.77;3.30;;;9.50;82.40;;;;;;5000266;28;20499;-86
2021/04/13 10:15:43;;;;;;;4.53;3.57;;;9.70;81.90;;;;;;5002409;28;20507;-86
2021/04/13 10:18:56;;;;;;;6.07;3.87;;;9.90;80.60;;;;;;4993785;28;20485;-86
2021/04/13 10:21:50;;;;;;;6.30;3.60;;;9.90;81.70;;;;;;5006460;28;20552;-86
2021/04/13 10:24:52;;;;;;;6.60;4.00;;;10.00;80.40;;;;;;5008970;28;20552;-85
2021/04/13 10:27:53;;;;;;;6.03;4.10;;;9.70;82.10;;;;;;5002506;28;20490;-86
2021/04/13 10:30:50;;;;;;;5.20;3.33;;;10.10;83.00;;;;;;5010950;28;20474;-86
2021/04/13 10:33:44;;;;;;;5.27;3.87;;;10.30;78.90;;;;;;4979008;28;20553;-86
2021/04/13 10:36:34;;;;;;;5.20;3.17;;;10.00;79.00;;;;;;4972453;28;21268;-86
2021/04/13 10:39:39;;;;;;;4.73;3.33;;;10.00;77.90;;;;;;4987717;28;20540;-86
2021/04/13 10:42:48;;;;;;;6.40;2.90;;;10.20;77.70;;;;;;5001329;28;20497;-87
2021/04/13 10:45:46;;;;;;;8.20;3.30;;;10.50;76.90;;;;;;4980095;28;20514;-86
2021/04/13 10:48:52;;;;;;;4.40;3.20;;;10.70;76.00;;;;;;4994312;28;20481;-87
2021/04/13 10:51:52;;;;;;;3.80;3.30;;;11.20;76.30;;;;;;4989822;28;20474;-87
2021/04/13 10:54:56;;;;;;;4.03;3.33;;;12.10;75.10;;;;;;4972459;28;20508;-86
2021/04/13 10:57:31;;;;;;;5.10;3.20;;;12.50;72.90;;;;;;4992419;28;20533;-87
2021/04/13 11:00:26;;;;;;;3.90;3.57;;;12.10;75.10;;;;;;5008876;28;20503;-86
2021/04/13 11:03:24;;;;;;;5.73;3.47;;;12.50;73.40;;;;;;4979499;28;20481;-85
2021/04/13 11:06:29;;;;;;;5.13;3.03;;;12.80;73.70;;;;;;4984551;28;20566;-85
2021/04/13 11:09:18;;;;;;;4.70;3.87;;;12.50;73.10;;;;;;4987540;28;20463;-84
2021/04/13 11:12:25;;;;;;;5.00;3.63;;;11.80;74.90;;;;;;4990506;28;21033;-89
2021/04/13 11:15:24;;;;;;;4.93;3.60;;;10.10;79.30;;;;;;4963900;28;20561;-89
2021/04/13 11:18:00;;;;;;;10.63;5.50;;;10.00;79.20;;;;;;4921008;28;25268;-89
2021/04/13 11:20:56;;;;;;;7.90;4.50;;;9.40;81.50;;;;;;4956045;28;20470;-88
2021/04/13 11:24:09;;;;;;;5.80;4.97;;;9.20;83.40;;;;;;4947458;28;20478;-88
2021/04/13 11:27:28;;;;;;;7.53;4.73;;;9.10;83.00;;;;;;4944834;28;20557;-88
2021/04/13 11:30:24;;;;;;;8.40;5.10;;;9.80;83.80;;;;;;4979972;28;20468;-88
2021/04/13 11:33:28;;;;;;;4.23;3.83;;;11.70;77.60;;;;;;4987123;28;20470;-89
2021/04/13 11:36:05;;;;;;;6.03;3.90;;;11.70;76.70;;;;;;4999859;28;20467;-87
2021/04/13 11:38:48;;;;;;;6.87;4.20;;;12.40;75.70;;;;;;4984908;28;20498;-88
2021/04/13 11:41:36;;;;;;;3.17;2.87;;;12.10;73.50;;;;;;4977046;28;20469;-87
2021/04/13 11:44:11;;;;;;;3.97;3.57;;;12.10;71.90;;;;;;4988362;28;20482;-85
2021/04/13 11:46:49;;;;;;;3.17;2.90;;;12.30;72.50;;;;;;4978131;28;20466;-85
2021/04/13 11:49:20;;;;;;;3.30;3.00;;;12.70;70.10;;;;;;5016163;28;20469;-85
2021/04/13 11:51:53;;;;;;;3.10;1.87;;;13.10;71.00;;;;;;4996617;28;20462;-90
2021/04/13 11:55:01;;;;;;;3.50;2.30;;;14.20;69.10;;;;;;5008817;28;20483;-90
2021/04/13 11:57:32;;;;;;;4.27;2.60;;;17.80;57.90;;;;;;4998056;28;20533;-90
2021/04/13 12:00:28;;;;;;;2.37;2.17;;;17.80;57.90;;;;;;5008205;28;20472;-90
2021/04/13 12:03:31;;;;;;;2.00;1.80;;;18.00;58.80;;;;;;5017154;28;20583;-90
2021/04/13 12:06:04;;;;;;;3.30;3.00;;;18.60;56.10;;;;;;5005417;28;20477;-90
2021/04/13 12:08:52;;;;;;;6.20;2.40;;;18.10;57.10;;;;;;5008272;28;20486;-90
2021/04/13 12:11:50;;;;;;;2.17;2.00;;;18.00;57.10;;;;;;5004252;28;20519;-91
2021/04/13 12:14:36;;;;;;;2.40;2.00;;;16.70;59.00;;;;;;4933885;29;20848;-91
2021/04/13 12:17:31;;;;;;;2.27;1.77;;;15.80;60.40;;;;;;4987840;28;20512;-90
2021/04/13 12:20:38;;;;;;;2.90;2.30;;;15.20;58.10;;;;;;5002304;28;20466;-91
2021/04/13 12:23:43;;;;;;;5.10;2.27;;;14.40;61.10;;;;;;4930311;28;20480;-90
2021/04/13 12:26:10;;;;;;;3.10;1.97;;;13.40;63.10;;;;;;4905952;29;20511;-90
2021/04/13 12:28:49;;;;;;;1.87;1.77;;;12.20;65.70;;;;;;4959912;28;20489;-90
2021/04/13 12:31:25;;;;;;;2.23;1.97;;;11.30;67.10;;;;;;4996277;28;20476;-89
2021/04/13 12:34:02;;;;;;;1.93;1.53;;;10.40;68.50;;;;;;5011403;28;20534;-89
2021/04/13 12:37:06;;;;;;;6.10;3.27;;;9.90;69.60;;;;;;5008652;28;20529;-90
2021/04/13 12:39:56;;;;;;;11.63;3.40;;;9.90;73.10;;;;;;5009614;28;20497;-86
2021/04/13 12:42:47;;;;;;;8.60;2.50;;;10.10;76.20;;;;;;4988434;28;20455;-86
2021/04/13 12:45:52;;;;;;;15.23;4.50;;;10.30;72.70;;;;;;5010854;28;20524;-87
2021/04/13 12:48:30;;;;;;;11.90;3.63;;;11.00;78.00;;;;;;4989909;28;20474;-87
2021/04/13 12:51:26;;;;;;;10.43;3.07;;;15.70;73.80;;;;;;5006683;28;20548;-89
2021/04/13 12:54:10;;;;;;;3.60;2.00;;;18.60;60.00;;;;;;4995959;28;20464;-90
2021/04/13 12:56:39;;;;;;;1.70;1.53;;;22.40;51.80;;;;;;4985172;28;20839;-89
2021/04/13 12:59:10;;;;;;;1.50;1.40;;;22.40;51.70;;;;;;4979865;28;20472;-88
2021/04/13 13:01:42;;;;;;;2.27;1.40;;;21.80;47.50;;;;;;5005432;28;20480;-89
2021/04/13 13:04:13;;;;;;;2.13;1.37;;;19.30;52.10;;;;;;5010650;28;20461;-89
2021/04/13 13:06:44;;;;;;;2.50;1.53;;;17.60;56.70;;;;;;5006103;28;20485;-89
2021/04/13 13:09:21;;;;;;;1.60;1.50;;;17.60;56.80;;;;;;5003207;28;20461;-89
2021/04/13 13:11:58;;;;;;;4.30;1.47;;;14.90;58.30;;;;;;5001675;28;20511;-88
2021/04/13 13:14:27;;;;;;;1.90;1.30;;;14.80;58.40;;;;;;5011624;28;20486;-88
2021/04/13 13:16:55;;;;;;;1.63;1.17;;;13.90;59.00;;;;;;5001269;28;20486;-88
2021/04/13 13:19:31;;;;;;;5.33;1.83;;;12.70;62.30;;;;;;5013056;28;20584;-88
2021/04/13 13:22:04;;;;;;;2.90;1.57;;;12.30;65.60;;;;;;5004021;28;20505;-89
2021/04/13 13:24:33;;;;;;;1.43;1.13;;;12.00;63.20;;;;;;5003830;28;20563;-88
2021/04/13 13:27:17;;;;;;;2.23;1.43;;;11.80;66.40;;;;;;4996675;28;20915;-88
2021/04/13 13:29:46;;;;;;;2.07;1.57;;;12.40;65.30;;;;;;4995327;28;20475;-87
2021/04/13 13:32:15;;;;;;;2.43;1.20;;;12.90;66.00;;;;;;5008876;28;20555;-88
2021/04/13 13:34:43;;;;;;;1.67;1.57;;;17.30;59.60;;;;;;4984915;28;20999;-88
2021/04/13 13:37:13;;;;;;;1.90;1.43;;;21.20;53.30;;;;;;4991187;28;20475;-88
2021/04/13 13:39:41;;;;;;;1.50;1.33;;;20.80;49.70;;;;;;4980787;28;20464;-87